createdAt,value
2022-12-16T00:00:48.971Z,8.17
2022-12-16T00:03:35.051Z,8.77
2022-12-16T00:06:22.580Z,9.07
2022-12-16T00:09:08.119Z,8.03
2022-12-16T00:11:53.850Z,9.13
2022-12-16T00:14:40.288Z,8.60
2022-12-16T00:17:25.542Z,8.10
2022-12-16T00:20:11.448Z,7.97
2022-12-16T00:22:57.234Z,8.97
2022-12-16T00:25:44.214Z,7.80
2022-12-16T00:28:29.484Z,8.87
2022-12-16T00:31:15.034Z,7.73
2022-12-16T00:34:00.483Z,8.00
2022-12-16T00:36:45.893Z,7.63
2022-12-16T00:39:31.222Z,7.60
2022-12-16T00:42:20.477Z,8.83
2022-12-16T00:45:06.319Z,9.17
2022-12-16T00:47:51.934Z,8.07
2022-12-16T00:50:37.306Z,8.27
2022-12-16T00:53:24.895Z,7.30
2022-12-16T00:56:14.562Z,7.77
2022-12-16T00:59:00.183Z,9.27
2022-12-16T01:01:45.691Z,7.50
2022-12-16T01:04:31.364Z,8.67
2022-12-16T01:07:16.699Z,8.10
2022-12-16T01:10:02.223Z,8.10
2022-12-16T01:12:47.667Z,8.93
2022-12-16T01:15:33.275Z,8.73
2022-12-16T01:18:19.048Z,7.70
2022-12-16T01:21:06.253Z,6.63
2022-12-16T01:23:52.764Z,7.40
2022-12-16T01:26:40.717Z,9.10
2022-12-16T01:29:25.940Z,7.43
2022-12-16T01:32:14.492Z,7.20
2022-12-16T01:34:59.693Z,7.70
2022-12-16T01:37:45.156Z,7.87
2022-12-16T01:40:31.016Z,7.80
2022-12-16T01:43:18.773Z,7.40
2022-12-16T01:46:07.270Z,7.23
2022-12-16T01:49:08.166Z,7.60
2022-12-16T01:51:56.368Z,7.97
2022-12-16T01:54:50.577Z,9.13
2022-12-16T01:57:42.092Z,7.70
2022-12-16T02:00:27.953Z,7.70
2022-12-16T02:03:13.646Z,8.20
2022-12-16T02:05:59.941Z,8.43
2022-12-16T02:08:45.249Z,8.37
2022-12-16T02:11:49.247Z,8.07
2022-12-16T02:14:41.509Z,9.53
2022-12-16T02:17:37.139Z,6.60
2022-12-16T02:20:51.649Z,9.83
2022-12-16T02:23:55.642Z,7.00
2022-12-16T02:27:33.010Z,7.40
2022-12-16T02:30:21.301Z,7.10
2022-12-16T02:33:27.613Z,8.30
2022-12-16T02:36:41.061Z,8.13
2022-12-16T02:39:47.612Z,10.85
2022-12-16T02:42:48.204Z,8.63
2022-12-16T02:45:35.298Z,7.93
2022-12-16T02:48:20.727Z,8.20
2022-12-16T02:51:06.582Z,9.43
2022-12-16T02:53:53.376Z,7.57
2022-12-16T02:57:08.586Z,7.53
2022-12-16T03:00:05.949Z,7.77
2022-12-16T03:03:18.613Z,7.37
2022-12-16T03:06:05.856Z,7.13
2022-12-16T03:08:57.112Z,7.43
2022-12-16T03:11:45.545Z,7.13
2022-12-16T03:14:34.524Z,8.13
2022-12-16T03:17:22.124Z,6.77
2022-12-16T03:20:12.637Z,7.80
2022-12-16T03:23:02.116Z,8.00
2022-12-16T03:25:50.901Z,7.37
2022-12-16T03:29:01.981Z,7.50
2022-12-16T03:32:03.273Z,8.07
2022-12-16T03:35:06.362Z,6.80
2022-12-16T03:37:55.570Z,7.88
2022-12-16T03:40:44.163Z,7.33
2022-12-16T03:43:30.241Z,9.23
2022-12-16T03:46:17.254Z,8.77
2022-12-16T03:49:02.785Z,8.50
2022-12-16T03:51:48.365Z,8.47
2022-12-16T03:54:33.725Z,11.07
2022-12-16T03:57:19.361Z,9.13
2022-12-16T04:00:05.952Z,8.30
2022-12-16T04:02:57.663Z,7.87
2022-12-16T04:05:43.024Z,10.20
2022-12-16T04:08:28.424Z,8.63
2022-12-16T04:11:33.189Z,7.97
2022-12-16T04:14:37.002Z,8.87
2022-12-16T04:17:40.780Z,9.10
2022-12-16T04:20:50.306Z,8.40
2022-12-16T04:24:01.205Z,10.30
2022-12-16T04:27:15.050Z,11.00
2022-12-16T04:30:19.050Z,9.50
2022-12-16T04:33:29.715Z,9.52
2022-12-16T04:36:33.745Z,8.43
2022-12-16T04:39:37.722Z,9.20
2022-12-16T04:42:41.632Z,9.63
2022-12-16T04:48:49.435Z,8.80
2022-12-16T04:54:57.537Z,9.10
2022-12-16T04:58:10.921Z,9.97
2022-12-16T05:01:14.832Z,10.37
2022-12-16T05:07:22.605Z,12.82
2022-12-16T05:13:31.747Z,9.27
2022-12-16T05:16:36.024Z,10.27
2022-12-16T05:19:40.298Z,11.60
2022-12-16T05:25:48.378Z,12.30
2022-12-16T05:28:53.804Z,13.90
2022-12-16T05:31:57.681Z,15.23
2022-12-16T05:38:05.230Z,17.13
2022-12-16T05:44:12.763Z,18.40
2022-12-16T05:50:20.461Z,17.08
2022-12-16T05:56:28.055Z,15.75
2022-12-16T05:59:32.048Z,15.03
2022-12-16T06:02:36.073Z,14.17
2022-12-16T06:05:40.372Z,12.73
2022-12-16T06:08:44.163Z,13.70
2022-12-16T06:11:48.188Z,14.07
2022-12-16T06:14:52.090Z,16.87
2022-12-16T06:20:59.730Z,14.50
2022-12-16T06:24:03.427Z,13.10
2022-12-16T06:27:07.476Z,11.70
2022-12-16T06:30:11.399Z,12.80
2022-12-16T06:36:18.991Z,12.18
2022-12-16T06:42:26.611Z,12.07
2022-12-16T06:48:39.106Z,10.97
2022-12-16T06:51:42.933Z,11.60
2022-12-16T06:54:46.733Z,15.23
2022-12-16T06:57:50.648Z,12.40
2022-12-16T07:00:54.642Z,10.47
2022-12-16T07:03:59.540Z,10.87
2022-12-16T07:07:03.260Z,10.88
2022-12-16T07:10:07.144Z,11.57
2022-12-16T07:13:11.130Z,11.87
2022-12-16T07:16:15.213Z,11.90
2022-12-16T07:19:18.874Z,13.82
2022-12-16T07:22:22.635Z,10.50
2022-12-16T07:28:30.359Z,10.70
2022-12-16T07:34:42.028Z,10.43
2022-12-16T07:37:47.871Z,10.33
2022-12-16T07:40:51.876Z,12.93
2022-12-16T07:43:55.708Z,10.47
2022-12-16T07:46:59.498Z,12.50
2022-12-16T07:50:03.349Z,9.82
2022-12-16T07:56:16.495Z,11.27
2022-12-16T07:59:20.359Z,10.75
2022-12-16T08:02:24.696Z,11.63
2022-12-16T08:05:28.928Z,10.47
2022-12-16T08:11:36.647Z,11.27
2022-12-16T08:14:40.383Z,10.20
2022-12-16T08:17:48.740Z,9.87
2022-12-16T08:20:53.053Z,12.53
2022-12-16T08:23:58.713Z,10.87
2022-12-16T08:27:02.477Z,9.88
2022-12-16T08:33:18.502Z,10.50
2022-12-16T08:36:24.119Z,9.93
2022-12-16T08:39:27.934Z,10.50
2022-12-16T08:42:31.764Z,10.47
2022-12-16T08:45:35.930Z,12.27
2022-12-16T08:51:43.634Z,10.25
2022-12-16T08:57:51.542Z,10.02
2022-12-16T09:03:59.928Z,8.97
2022-12-16T09:07:04.086Z,12.50
2022-12-16T09:13:12.831Z,12.33
2022-12-16T09:16:19.494Z,12.55
2022-12-16T09:19:23.697Z,14.23
2022-12-16T09:22:27.603Z,14.25
2022-12-16T09:25:31.572Z,15.47
2022-12-16T09:31:39.541Z,12.70
2022-12-16T09:37:47.184Z,13.20
2022-12-16T09:40:50.953Z,13.63
2022-12-16T09:47:35.579Z,13.50
2022-12-16T09:50:44.458Z,14.55
2022-12-16T09:53:55.474Z,14.70
2022-12-16T09:57:02.057Z,14.33
2022-12-16T10:00:16.071Z,13.40
2022-12-16T10:03:31.767Z,12.57
2022-12-16T10:06:54.550Z,10.37
2022-12-16T10:10:15.467Z,11.10
2022-12-16T10:13:28.361Z,11.57
2022-12-16T10:16:58.651Z,11.60
2022-12-16T10:20:22.057Z,14.67
2022-12-16T10:23:48.100Z,12.15
2022-12-16T10:27:19.869Z,12.43
2022-12-16T10:30:31.528Z,12.00
2022-12-16T10:33:37.599Z,13.43
2022-12-16T10:36:43.398Z,11.07
2022-12-16T10:39:51.119Z,12.00
2022-12-16T10:43:05.781Z,11.53
2022-12-16T10:46:12.458Z,12.90
2022-12-16T10:49:16.396Z,10.83
2022-12-16T10:52:20.707Z,11.75
2022-12-16T10:55:52.733Z,11.00
2022-12-16T10:59:10.156Z,10.93
2022-12-16T11:02:41.509Z,12.53
2022-12-16T11:05:53.950Z,11.37
2022-12-16T11:08:59.821Z,11.70
2022-12-16T11:12:03.719Z,12.13
2022-12-16T11:18:38.162Z,13.70
2022-12-16T11:21:41.977Z,10.53
2022-12-16T11:24:46.783Z,11.25
2022-12-16T11:27:50.720Z,11.67
2022-12-16T11:30:55.088Z,12.98
2022-12-16T11:34:00.894Z,12.27
2022-12-16T11:37:10.353Z,11.30
2022-12-16T11:40:15.065Z,11.67
2022-12-16T11:43:22.436Z,12.30
2022-12-16T11:46:31.755Z,12.80
2022-12-16T11:49:50.994Z,11.00
2022-12-16T11:52:55.257Z,11.60
2022-12-16T11:56:11.170Z,11.13
2022-12-16T11:59:25.554Z,12.73
2022-12-16T12:02:56.116Z,11.37
2022-12-16T12:06:14.461Z,11.43
2022-12-16T12:09:29.695Z,12.53
2022-12-16T12:13:06.626Z,13.37
2022-12-16T12:16:41.429Z,12.17
2022-12-16T12:20:25.781Z,12.03
2022-12-16T12:23:30.594Z,11.88
2022-12-16T12:32:35.584Z,10.80
2022-12-16T12:36:13.472Z,12.37
2022-12-16T12:39:28.757Z,14.20
2022-12-16T12:42:48.740Z,12.20
2022-12-16T12:46:38.159Z,13.23
2022-12-16T12:49:53.276Z,13.30
2022-12-16T12:53:16.530Z,12.35
2022-12-16T12:56:46.966Z,14.00
2022-12-16T13:00:19.491Z,12.93
2022-12-16T13:04:02.403Z,13.83
2022-12-16T13:07:07.351Z,12.70
2022-12-16T13:10:48.740Z,15.50
2022-12-16T13:13:55.537Z,15.90
2022-12-16T13:17:02.719Z,14.37
2022-12-16T13:20:16.273Z,11.33
2022-12-16T13:23:42.651Z,15.05
2022-12-16T13:26:49.469Z,19.37
2022-12-16T13:29:53.419Z,17.17
2022-12-16T13:32:57.241Z,16.47
2022-12-16T13:36:18.101Z,14.07
2022-12-16T13:39:59.493Z,13.13
2022-12-16T13:43:03.104Z,17.57
2022-12-16T13:46:33.399Z,13.05
2022-12-16T13:50:00.408Z,17.63
2022-12-16T13:53:14.844Z,17.60
2022-12-16T13:56:19.689Z,14.60
2022-12-16T13:59:29.948Z,17.43
2022-12-16T14:02:38.907Z,15.17
2022-12-16T14:05:47.568Z,16.33
2022-12-16T14:08:56.571Z,14.77
2022-12-16T14:12:16.119Z,14.67
2022-12-16T14:15:30.017Z,13.60
2022-12-16T14:18:48.558Z,14.15
2022-12-16T14:22:07.688Z,16.57
2022-12-16T14:25:12.464Z,15.20
2022-12-16T14:28:17.381Z,12.57
2022-12-16T14:31:24.243Z,15.53
2022-12-16T14:34:38.569Z,16.20
2022-12-16T14:37:48.662Z,14.30
2022-12-16T14:40:52.478Z,11.23
2022-12-16T14:47:10.438Z,12.60
2022-12-16T14:50:14.549Z,13.60
2022-12-16T14:53:38.547Z,18.27
2022-12-16T14:56:42.274Z,15.52
2022-12-16T14:59:46.534Z,17.13
2022-12-16T15:03:02.674Z,15.87
2022-12-16T15:06:07.572Z,15.80
2022-12-16T15:09:16.748Z,14.83
2022-12-16T15:12:21.133Z,17.10
2022-12-16T15:15:32.919Z,16.00
2022-12-16T15:18:52.313Z,12.63
2022-12-16T15:21:56.950Z,17.03
2022-12-16T15:25:02.653Z,15.37
2022-12-16T15:28:14.396Z,13.53
2022-12-16T15:31:32.043Z,19.17
2022-12-16T15:34:49.175Z,13.03
2022-12-16T15:38:03.860Z,15.73
2022-12-16T15:41:09.880Z,15.73
2022-12-16T15:44:28.207Z,18.97
2022-12-16T15:47:59.156Z,14.00
2022-12-16T15:51:12.144Z,14.50
2022-12-16T15:54:22.944Z,16.45
2022-12-16T15:57:51.407Z,17.60
2022-12-16T16:00:55.113Z,19.70
2022-12-16T16:04:08.397Z,24.43
2022-12-16T16:07:12.242Z,14.77
2022-12-16T16:13:29.070Z,20.93
2022-12-16T16:16:34.124Z,24.23
2022-12-16T16:19:45.016Z,24.07
2022-12-16T16:22:48.912Z,22.90
2022-12-16T16:28:57.015Z,25.10
2022-12-16T16:32:04.145Z,32.20
2022-12-16T16:35:09.100Z,26.40
2022-12-16T16:38:18.354Z,25.70
2022-12-16T16:41:22.586Z,23.30
2022-12-16T16:47:35.354Z,27.88
2022-12-16T16:50:39.150Z,23.40
2022-12-16T16:53:42.899Z,24.48
2022-12-16T16:59:51.153Z,23.93
2022-12-16T17:05:59.460Z,22.88
2022-12-16T17:09:03.298Z,21.63
2022-12-16T17:15:10.861Z,22.00
2022-12-16T17:21:18.703Z,22.10
2022-12-16T17:24:22.546Z,20.70
2022-12-16T17:27:36.185Z,23.60
2022-12-16T17:30:46.930Z,22.02
2022-12-16T17:33:51.483Z,20.40
2022-12-16T17:39:59.169Z,24.10
2022-12-16T17:43:03.229Z,19.70
2022-12-16T17:46:22.386Z,22.13
2022-12-16T17:49:28.669Z,18.10
2022-12-16T17:52:32.446Z,20.87
2022-12-16T17:55:36.311Z,20.47
2022-12-16T18:01:44.253Z,20.60
2022-12-16T18:04:48.283Z,18.37
2022-12-16T18:10:56.182Z,18.17
2022-12-16T18:14:00.202Z,21.87
2022-12-16T18:17:04.139Z,16.60
2022-12-16T18:23:12.780Z,30.77
2022-12-16T18:26:24.319Z,25.73
2022-12-16T18:29:28.096Z,22.13
2022-12-16T18:35:43.056Z,20.60
2022-12-16T18:38:46.960Z,20.60
2022-12-16T18:41:51.551Z,18.00
2022-12-16T18:45:00.892Z,24.27
2022-12-16T18:48:05.464Z,18.77
2022-12-16T18:51:17.382Z,20.10
2022-12-16T18:54:35.385Z,18.03
2022-12-16T18:57:40.198Z,21.67
2022-12-16T19:00:43.894Z,18.45
2022-12-16T19:03:47.903Z,25.00
2022-12-16T19:06:52.910Z,16.60
2022-12-16T19:09:57.120Z,18.30
2022-12-16T19:13:01.537Z,17.40
2022-12-16T19:16:15.717Z,20.13
2022-12-16T19:19:20.351Z,18.75
2022-12-16T19:22:24.708Z,17.90
2022-12-16T19:25:48.355Z,19.93
2022-12-16T19:28:53.429Z,19.63
2022-12-16T19:32:00.501Z,17.87
2022-12-16T19:35:04.843Z,24.40
2022-12-16T19:38:08.571Z,19.00
2022-12-16T19:41:14.019Z,25.10
2022-12-16T19:47:25.631Z,19.53
2022-12-16T19:50:30.421Z,21.17
2022-12-16T19:53:34.484Z,18.80
2022-12-16T19:56:39.126Z,18.70
2022-12-16T19:59:43.598Z,19.77
2022-12-16T20:05:52.008Z,22.30
2022-12-16T20:08:55.766Z,21.57
2022-12-16T20:12:02.179Z,19.17
2022-12-16T20:15:09.238Z,20.97
2022-12-16T20:18:13.197Z,21.83
2022-12-16T20:21:21.593Z,28.70
2022-12-16T20:24:28.797Z,24.20
2022-12-16T20:27:32.550Z,20.58
2022-12-16T20:30:36.662Z,21.90
2022-12-16T20:33:41.222Z,17.90
2022-12-16T20:36:45.453Z,20.37
2022-12-16T20:43:00.876Z,20.23
2022-12-16T20:46:06.355Z,20.57
2022-12-16T20:49:10.352Z,28.87
2022-12-16T20:52:14.352Z,16.13
2022-12-16T20:55:18.211Z,15.57
2022-12-16T21:01:26.104Z,15.43
2022-12-16T21:04:29.906Z,14.97
2022-12-16T21:07:33.833Z,15.27
2022-12-16T21:10:37.725Z,16.10
2022-12-16T21:16:45.344Z,17.83
2022-12-16T21:19:49.181Z,18.00
2022-12-16T21:22:53.149Z,16.97
2022-12-16T21:29:00.830Z,14.05
2022-12-16T21:35:08.394Z,14.02
2022-12-16T21:38:13.463Z,16.90
2022-12-16T21:44:21.230Z,14.70
2022-12-16T21:50:28.772Z,16.77
2022-12-16T21:56:36.560Z,15.00
2022-12-16T22:02:44.180Z,16.33
2022-12-16T22:05:48.246Z,15.23
2022-12-16T22:12:03.794Z,16.93
2022-12-16T22:15:07.503Z,13.95
2022-12-16T22:18:11.326Z,12.77
2022-12-16T22:21:20.815Z,14.80
2022-12-16T22:24:24.459Z,14.27
2022-12-16T22:30:32.152Z,13.68
2022-12-16T22:33:35.703Z,13.18
2022-12-16T22:36:39.593Z,11.93
2022-12-16T22:39:45.062Z,12.87
2022-12-16T22:42:49.209Z,13.23
2022-12-16T22:49:00.191Z,14.70
2022-12-16T22:55:08.002Z,11.80
2022-12-16T23:01:16.545Z,12.07
2022-12-16T23:04:20.541Z,14.17
2022-12-16T23:07:24.102Z,12.95
2022-12-16T23:10:28.094Z,13.90
2022-12-16T23:13:32.337Z,12.83
2022-12-16T23:16:36.304Z,11.13
2022-12-16T23:19:40.008Z,13.93
2022-12-16T23:25:47.734Z,12.15
2022-12-16T23:32:15.483Z,12.35
2022-12-16T23:35:19.854Z,10.63
2022-12-16T23:38:25.298Z,11.83
2022-12-16T23:41:29.017Z,12.43
2022-12-16T23:47:36.994Z,11.25
2022-12-16T23:53:44.686Z,11.95
2022-12-16T23:56:48.532Z,13.00
2022-12-16T23:59:52.464Z,11.47
